sensor_id;sensor_type;location;lat;lon;timestamp;temperature;humidity
72940;DHT22;61094;51.154;13.570;2022-11-15T00:01:07;7.80;96.80
72940;DHT22;61094;51.154;13.570;2022-11-15T00:03:34;7.80;96.70
72940;DHT22;61094;51.154;13.570;2022-11-15T00:06:02;7.80;97.00
72940;DHT22;61094;51.154;13.570;2022-11-15T00:08:30;7.80;95.20
72940;DHT22;61094;51.154;13.570;2022-11-15T00:10:59;7.80;96.00
72940;DHT22;61094;51.154;13.570;2022-11-15T00:13:26;7.80;96.70
72940;DHT22;61094;51.154;13.570;2022-11-15T00:15:56;7.80;96.20
72940;DHT22;61094;51.154;13.570;2022-11-15T00:18:23;7.80;97.30
72940;DHT22;61094;51.154;13.570;2022-11-15T00:20:50;7.90;95.30
72940;DHT22;61094;51.154;13.570;2022-11-15T00:23:17;7.90;96.10
72940;DHT22;61094;51.154;13.570;2022-11-15T00:25:43;7.90;97.00
72940;DHT22;61094;51.154;13.570;2022-11-15T00:28:12;7.90;96.50
72940;DHT22;61094;51.154;13.570;2022-11-15T00:30:38;7.90;95.70
72940;DHT22;61094;51.154;13.570;2022-11-15T00:33:06;7.90;96.80
72940;DHT22;61094;51.154;13.570;2022-11-15T00:35:34;7.80;94.30
72940;DHT22;61094;51.154;13.570;2022-11-15T00:38:01;7.80;94.90
72940;DHT22;61094;51.154;13.570;2022-11-15T00:40:28;7.80;94.70
72940;DHT22;61094;51.154;13.570;2022-11-15T00:42:55;7.80;93.90
72940;DHT22;61094;51.154;13.570;2022-11-15T00:45:23;7.80;95.60
72940;DHT22;61094;51.154;13.570;2022-11-15T00:47:50;7.80;94.80
72940;DHT22;61094;51.154;13.570;2022-11-15T00:50:17;7.70;93.80
72940;DHT22;61094;51.154;13.570;2022-11-15T00:52:44;7.70;93.30
72940;DHT22;61094;51.154;13.570;2022-11-15T00:55:13;7.70;95.80
72940;DHT22;61094;51.154;13.570;2022-11-15T00:57:41;7.60;95.30
72940;DHT22;61094;51.154;13.570;2022-11-15T01:00:08;7.60;94.60
72940;DHT22;61094;51.154;13.570;2022-11-15T01:02:37;7.60;93.90
72940;DHT22;61094;51.154;13.570;2022-11-15T01:05:04;7.60;95.40
72940;DHT22;61094;51.154;13.570;2022-11-15T01:07:31;7.60;94.50
72940;DHT22;61094;51.154;13.570;2022-11-15T01:09:58;7.60;95.20
72940;DHT22;61094;51.154;13.570;2022-11-15T01:12:25;7.50;93.40
72940;DHT22;61094;51.154;13.570;2022-11-15T01:14:51;7.60;97.40
72940;DHT22;61094;51.154;13.570;2022-11-15T01:17:18;7.60;95.30
72940;DHT22;61094;51.154;13.570;2022-11-15T01:19:46;7.60;94.20
72940;DHT22;61094;51.154;13.570;2022-11-15T01:22:13;7.50;93.50
72940;DHT22;61094;51.154;13.570;2022-11-15T01:24:40;7.50;93.60
72940;DHT22;61094;51.154;13.570;2022-11-15T01:27:06;7.50;94.30
72940;DHT22;61094;51.154;13.570;2022-11-15T01:29:33;7.50;94.60
72940;DHT22;61094;51.154;13.570;2022-11-15T01:32:00;7.50;92.20
72940;DHT22;61094;51.154;13.570;2022-11-15T01:34:27;7.50;95.20
72940;DHT22;61094;51.154;13.570;2022-11-15T01:36:55;7.50;94.50
72940;DHT22;61094;51.154;13.570;2022-11-15T01:39:21;7.50;93.50
72940;DHT22;61094;51.154;13.570;2022-11-15T01:41:48;7.40;92.80
72940;DHT22;61094;51.154;13.570;2022-11-15T01:44:43;7.40;91.80
72940;DHT22;61094;51.154;13.570;2022-11-15T01:47:13;7.40;92.70
72940;DHT22;61094;51.154;13.570;2022-11-15T01:49:51;7.40;91.40
72940;DHT22;61094;51.154;13.570;2022-11-15T01:52:24;7.40;91.90
72940;DHT22;61094;51.154;13.570;2022-11-15T01:54:55;7.30;91.60
72940;DHT22;61094;51.154;13.570;2022-11-15T01:57:22;7.30;92.10
72940;DHT22;61094;51.154;13.570;2022-11-15T01:59:49;7.30;92.00
72940;DHT22;61094;51.154;13.570;2022-11-15T02:02:16;7.30;92.00
72940;DHT22;61094;51.154;13.570;2022-11-15T02:04:45;7.30;92.30
72940;DHT22;61094;51.154;13.570;2022-11-15T02:07:16;7.30;92.80
72940;DHT22;61094;51.154;13.570;2022-11-15T02:09:46;7.20;92.30
72940;DHT22;61094;51.154;13.570;2022-11-15T02:12:16;7.20;93.30
72940;DHT22;61094;51.154;13.570;2022-11-15T02:14:48;7.20;94.10
72940;DHT22;61094;51.154;13.570;2022-11-15T02:17:31;7.20;92.40
72940;DHT22;61094;51.154;13.570;2022-11-15T02:20:29;7.10;92.40
72940;DHT22;61094;51.154;13.570;2022-11-15T02:23:27;7.10;93.90
72940;DHT22;61094;51.154;13.570;2022-11-15T02:26:13;7.10;93.10
72940;DHT22;61094;51.154;13.570;2022-11-15T02:28:50;7.10;94.70
72940;DHT22;61094;51.154;13.570;2022-11-15T02:31:27;7.10;96.00
72940;DHT22;61094;51.154;13.570;2022-11-15T02:34:01;7.10;95.90
72940;DHT22;61094;51.154;13.570;2022-11-15T02:36:39;7.00;92.50
72940;DHT22;61094;51.154;13.570;2022-11-15T02:39:11;7.10;94.30
72940;DHT22;61094;51.154;13.570;2022-11-15T02:41:43;7.00;95.50
72940;DHT22;61094;51.154;13.570;2022-11-15T02:44:14;7.00;94.80
72940;DHT22;61094;51.154;13.570;2022-11-15T02:46:47;7.00;93.40
72940;DHT22;61094;51.154;13.570;2022-11-15T02:49:34;7.00;96.30
72940;DHT22;61094;51.154;13.570;2022-11-15T02:52:01;7.00;93.40
72940;DHT22;61094;51.154;13.570;2022-11-15T02:54:30;6.90;95.20
72940;DHT22;61094;51.154;13.570;2022-11-15T02:57:01;6.90;93.80
72940;DHT22;61094;51.154;13.570;2022-11-15T02:59:53;6.90;93.80
72940;DHT22;61094;51.154;13.570;2022-11-15T03:02:41;6.90;92.20
72940;DHT22;61094;51.154;13.570;2022-11-15T03:05:15;6.90;92.80
72940;DHT22;61094;51.154;13.570;2022-11-15T03:07:51;6.80;92.10
72940;DHT22;61094;51.154;13.570;2022-11-15T03:10:25;6.80;95.60
72940;DHT22;61094;51.154;13.570;2022-11-15T03:12:56;6.80;94.00
72940;DHT22;61094;51.154;13.570;2022-11-15T03:15:27;6.80;96.60
72940;DHT22;61094;51.154;13.570;2022-11-15T03:18:00;6.80;94.70
72940;DHT22;61094;51.154;13.570;2022-11-15T03:20:28;6.80;92.60
72940;DHT22;61094;51.154;13.570;2022-11-15T03:22:59;6.80;92.70
72940;DHT22;61094;51.154;13.570;2022-11-15T03:25:28;6.80;93.30
72940;DHT22;61094;51.154;13.570;2022-11-15T03:27:57;6.80;94.00
72940;DHT22;61094;51.154;13.570;2022-11-15T03:30:25;6.80;94.30
72940;DHT22;61094;51.154;13.570;2022-11-15T03:32:54;6.70;96.10
72940;DHT22;61094;51.154;13.570;2022-11-15T03:35:24;6.80;97.30
72940;DHT22;61094;51.154;13.570;2022-11-15T03:37:57;6.70;96.40
72940;DHT22;61094;51.154;13.570;2022-11-15T03:40:30;6.70;95.70
72940;DHT22;61094;51.154;13.570;2022-11-15T03:43:04;6.80;99.00
72940;DHT22;61094;51.154;13.570;2022-11-15T03:45:35;6.70;93.30
72940;DHT22;61094;51.154;13.570;2022-11-15T03:48:09;6.70;93.00
72940;DHT22;61094;51.154;13.570;2022-11-15T03:50:39;6.70;94.00
72940;DHT22;61094;51.154;13.570;2022-11-15T03:53:06;6.70;94.40
72940;DHT22;61094;51.154;13.570;2022-11-15T03:55:32;6.60;93.60
72940;DHT22;61094;51.154;13.570;2022-11-15T03:58:00;6.60;93.50
72940;DHT22;61094;51.154;13.570;2022-11-15T04:00:27;6.60;92.70
72940;DHT22;61094;51.154;13.570;2022-11-15T04:02:54;6.50;92.40
72940;DHT22;61094;51.154;13.570;2022-11-15T04:05:21;6.50;93.40
72940;DHT22;61094;51.154;13.570;2022-11-15T04:07:49;6.50;93.90
72940;DHT22;61094;51.154;13.570;2022-11-15T04:10:16;6.50;93.90
72940;DHT22;61094;51.154;13.570;2022-11-15T04:12:44;6.50;94.90
72940;DHT22;61094;51.154;13.570;2022-11-15T04:15:13;6.50;94.70
72940;DHT22;61094;51.154;13.570;2022-11-15T04:17:42;6.50;93.50
72940;DHT22;61094;51.154;13.570;2022-11-15T04:20:11;6.50;92.80
72940;DHT22;61094;51.154;13.570;2022-11-15T04:22:59;6.50;93.40
72940;DHT22;61094;51.154;13.570;2022-11-15T04:25:44;6.50;93.70
72940;DHT22;61094;51.154;13.570;2022-11-15T04:28:11;6.50;94.50
72940;DHT22;61094;51.154;13.570;2022-11-15T04:30:38;6.50;92.40
72940;DHT22;61094;51.154;13.570;2022-11-15T04:33:05;6.50;92.10
72940;DHT22;61094;51.154;13.570;2022-11-15T04:35:32;6.50;92.90
72940;DHT22;61094;51.154;13.570;2022-11-15T04:38:01;6.50;93.90
72940;DHT22;61094;51.154;13.570;2022-11-15T04:40:27;6.50;92.90
72940;DHT22;61094;51.154;13.570;2022-11-15T04:42:55;6.50;94.10
72940;DHT22;61094;51.154;13.570;2022-11-15T04:45:21;6.50;94.00
72940;DHT22;61094;51.154;13.570;2022-11-15T04:47:48;6.60;92.60
72940;DHT22;61094;51.154;13.570;2022-11-15T04:50:15;6.60;92.80
72940;DHT22;61094;51.154;13.570;2022-11-15T04:52:43;6.60;97.40
72940;DHT22;61094;51.154;13.570;2022-11-15T04:55:17;6.60;94.00
72940;DHT22;61094;51.154;13.570;2022-11-15T04:57:44;6.60;94.00
72940;DHT22;61094;51.154;13.570;2022-11-15T05:00:13;6.60;96.20
72940;DHT22;61094;51.154;13.570;2022-11-15T05:02:40;6.60;97.00
72940;DHT22;61094;51.154;13.570;2022-11-15T05:05:25;6.60;94.90
72940;DHT22;61094;51.154;13.570;2022-11-15T05:07:51;6.60;94.20
72940;DHT22;61094;51.154;13.570;2022-11-15T05:10:19;6.60;95.60
72940;DHT22;61094;51.154;13.570;2022-11-15T05:12:46;6.60;93.30
72940;DHT22;61094;51.154;13.570;2022-11-15T05:15:13;6.60;94.60
72940;DHT22;61094;51.154;13.570;2022-11-15T05:17:40;6.60;94.00
72940;DHT22;61094;51.154;13.570;2022-11-15T05:20:08;6.50;92.80
72940;DHT22;61094;51.154;13.570;2022-11-15T05:22:35;6.50;93.80
72940;DHT22;61094;51.154;13.570;2022-11-15T05:25:02;6.50;93.10
72940;DHT22;61094;51.154;13.570;2022-11-15T05:27:30;6.50;92.30
72940;DHT22;61094;51.154;13.570;2022-11-15T05:29:56;6.50;91.90
72940;DHT22;61094;51.154;13.570;2022-11-15T05:32:23;6.50;92.20
72940;DHT22;61094;51.154;13.570;2022-11-15T05:34:51;6.50;91.80
72940;DHT22;61094;51.154;13.570;2022-11-15T05:37:18;6.40;94.10
72940;DHT22;61094;51.154;13.570;2022-11-15T05:39:45;6.50;93.70
72940;DHT22;61094;51.154;13.570;2022-11-15T05:42:13;6.50;92.60
72940;DHT22;61094;51.154;13.570;2022-11-15T05:44:44;6.50;94.50
72940;DHT22;61094;51.154;13.570;2022-11-15T05:47:15;6.40;94.80
72940;DHT22;61094;51.154;13.570;2022-11-15T05:49:44;6.40;92.30
72940;DHT22;61094;51.154;13.570;2022-11-15T05:52:13;6.40;91.80
72940;DHT22;61094;51.154;13.570;2022-11-15T05:54:43;6.40;91.70
72940;DHT22;61094;51.154;13.570;2022-11-15T05:57:10;6.30;91.60
72940;DHT22;61094;51.154;13.570;2022-11-15T05:59:37;6.30;91.60
72940;DHT22;61094;51.154;13.570;2022-11-15T06:02:07;6.30;91.80
72940;DHT22;61094;51.154;13.570;2022-11-15T06:04:33;6.30;91.60
72940;DHT22;61094;51.154;13.570;2022-11-15T06:07:00;6.30;92.30
72940;DHT22;61094;51.154;13.570;2022-11-15T06:09:27;6.30;94.30
72940;DHT22;61094;51.154;13.570;2022-11-15T06:11:54;6.20;94.30
72940;DHT22;61094;51.154;13.570;2022-11-15T06:14:21;6.20;93.80
72940;DHT22;61094;51.154;13.570;2022-11-15T06:16:48;6.30;93.00
72940;DHT22;61094;51.154;13.570;2022-11-15T06:19:16;6.30;92.20
72940;DHT22;61094;51.154;13.570;2022-11-15T06:21:42;6.30;93.90
72940;DHT22;61094;51.154;13.570;2022-11-15T06:24:09;6.30;96.50
72940;DHT22;61094;51.154;13.570;2022-11-15T06:26:36;6.20;93.80
72940;DHT22;61094;51.154;13.570;2022-11-15T06:29:03;6.30;94.40
72940;DHT22;61094;51.154;13.570;2022-11-15T06:31:30;6.30;93.70
72940;DHT22;61094;51.154;13.570;2022-11-15T06:33:57;6.30;92.80
72940;DHT22;61094;51.154;13.570;2022-11-15T06:36:26;6.30;94.00
72940;DHT22;61094;51.154;13.570;2022-11-15T06:38:52;6.30;93.80
72940;DHT22;61094;51.154;13.570;2022-11-15T06:41:22;6.30;94.30
72940;DHT22;61094;51.154;13.570;2022-11-15T06:43:49;6.30;94.80
72940;DHT22;61094;51.154;13.570;2022-11-15T06:46:16;6.40;94.00
72940;DHT22;61094;51.154;13.570;2022-11-15T06:48:42;6.40;94.70
72940;DHT22;61094;51.154;13.570;2022-11-15T06:51:09;6.40;96.10
72940;DHT22;61094;51.154;13.570;2022-11-15T06:53:37;6.50;96.30
72940;DHT22;61094;51.154;13.570;2022-11-15T06:56:05;6.50;95.30
72940;DHT22;61094;51.154;13.570;2022-11-15T06:58:33;6.60;93.30
72940;DHT22;61094;51.154;13.570;2022-11-15T07:01:01;6.60;94.40
72940;DHT22;61094;51.154;13.570;2022-11-15T07:03:28;6.70;93.80
72940;DHT22;61094;51.154;13.570;2022-11-15T07:05:57;6.70;95.40
72940;DHT22;61094;51.154;13.570;2022-11-15T07:08:26;6.80;94.20
72940;DHT22;61094;51.154;13.570;2022-11-15T07:10:54;6.80;94.00
72940;DHT22;61094;51.154;13.570;2022-11-15T07:13:24;6.80;93.50
72940;DHT22;61094;51.154;13.570;2022-11-15T07:15:51;6.90;94.30
72940;DHT22;61094;51.154;13.570;2022-11-15T07:18:17;7.00;94.30
72940;DHT22;61094;51.154;13.570;2022-11-15T07:20:44;7.00;92.30
72940;DHT22;61094;51.154;13.570;2022-11-15T07:23:11;7.10;93.00
72940;DHT22;61094;51.154;13.570;2022-11-15T07:25:38;7.20;92.30
72940;DHT22;61094;51.154;13.570;2022-11-15T07:28:06;7.30;92.00
72940;DHT22;61094;51.154;13.570;2022-11-15T07:30:32;7.40;92.30
72940;DHT22;61094;51.154;13.570;2022-11-15T07:33:00;7.60;93.00
72940;DHT22;61094;51.154;13.570;2022-11-15T07:35:29;7.70;91.30
72940;DHT22;61094;51.154;13.570;2022-11-15T07:37:57;7.90;94.30
72940;DHT22;61094;51.154;13.570;2022-11-15T07:40:24;8.00;91.30
72940;DHT22;61094;51.154;13.570;2022-11-15T07:42:51;8.10;91.60
72940;DHT22;61094;51.154;13.570;2022-11-15T07:45:23;8.20;91.40
72940;DHT22;61094;51.154;13.570;2022-11-15T07:47:51;8.40;92.10
72940;DHT22;61094;51.154;13.570;2022-11-15T07:50:18;8.50;92.10
72940;DHT22;61094;51.154;13.570;2022-11-15T07:52:45;8.60;91.60
72940;DHT22;61094;51.154;13.570;2022-11-15T07:55:12;8.70;92.20
72940;DHT22;61094;51.154;13.570;2022-11-15T07:57:39;8.80;92.90
72940;DHT22;61094;51.154;13.570;2022-11-15T08:00:16;8.90;92.60
72940;DHT22;61094;51.154;13.570;2022-11-15T08:02:44;9.10;92.50
72940;DHT22;61094;51.154;13.570;2022-11-15T08:05:11;9.20;90.90
72940;DHT22;61094;51.154;13.570;2022-11-15T08:07:41;9.30;91.00
72940;DHT22;61094;51.154;13.570;2022-11-15T08:10:08;9.50;91.50
72940;DHT22;61094;51.154;13.570;2022-11-15T08:12:36;9.60;90.60
72940;DHT22;61094;51.154;13.570;2022-11-15T08:15:04;9.70;90.00
72940;DHT22;61094;51.154;13.570;2022-11-15T08:17:31;9.90;90.10
72940;DHT22;61094;51.154;13.570;2022-11-15T08:20:00;10.20;89.70
72940;DHT22;61094;51.154;13.570;2022-11-15T08:22:28;10.40;89.80
72940;DHT22;61094;51.154;13.570;2022-11-15T08:24:55;10.80;88.30
72940;DHT22;61094;51.154;13.570;2022-11-15T08:27:21;11.10;86.90
72940;DHT22;61094;51.154;13.570;2022-11-15T08:29:49;11.50;85.00
72940;DHT22;61094;51.154;13.570;2022-11-15T08:32:16;11.70;80.70
72940;DHT22;61094;51.154;13.570;2022-11-15T08:34:43;12.00;81.60
72940;DHT22;61094;51.154;13.570;2022-11-15T08:37:11;12.30;80.70
72940;DHT22;61094;51.154;13.570;2022-11-15T08:39:50;12.50;80.00
72940;DHT22;61094;51.154;13.570;2022-11-15T08:42:17;12.90;80.10
72940;DHT22;61094;51.154;13.570;2022-11-15T08:44:43;13.20;77.50
72940;DHT22;61094;51.154;13.570;2022-11-15T08:47:11;13.60;78.70
72940;DHT22;61094;51.154;13.570;2022-11-15T08:53:12;14.20;75.90
72940;DHT22;61094;51.154;13.570;2022-11-15T08:55:40;14.50;73.90
72940;DHT22;61094;51.154;13.570;2022-11-15T08:58:07;14.70;68.90
72940;DHT22;61094;51.154;13.570;2022-11-15T09:00:34;14.80;77.30
72940;DHT22;61094;51.154;13.570;2022-11-15T09:03:03;15.10;74.20
72940;DHT22;61094;51.154;13.570;2022-11-15T09:05:30;15.40;74.80
72940;DHT22;61094;51.154;13.570;2022-11-15T09:07:57;15.70;68.10
72940;DHT22;61094;51.154;13.570;2022-11-15T09:10:25;15.90;72.00
72940;DHT22;61094;51.154;13.570;2022-11-15T09:12:52;16.10;72.30
72940;DHT22;61094;51.154;13.570;2022-11-15T09:15:31;16.20;69.00
72940;DHT22;61094;51.154;13.570;2022-11-15T09:18:00;16.20;62.30
72940;DHT22;61094;51.154;13.570;2022-11-15T09:20:27;16.30;70.60
72940;DHT22;61094;51.154;13.570;2022-11-15T09:22:54;16.20;65.50
72940;DHT22;61094;51.154;13.570;2022-11-15T09:25:21;16.10;60.60
72940;DHT22;61094;51.154;13.570;2022-11-15T09:27:49;16.00;69.20
72940;DHT22;61094;51.154;13.570;2022-11-15T09:30:16;16.00;67.30
72940;DHT22;61094;51.154;13.570;2022-11-15T09:32:42;15.90;70.40
72940;DHT22;61094;51.154;13.570;2022-11-15T09:35:09;16.00;70.70
72940;DHT22;61094;51.154;13.570;2022-11-15T09:37:37;16.10;70.20
72940;DHT22;61094;51.154;13.570;2022-11-15T09:40:20;16.10;72.00
72940;DHT22;61094;51.154;13.570;2022-11-15T09:43:27;16.20;70.80
72940;DHT22;61094;51.154;13.570;2022-11-15T09:46:04;16.40;62.90
72940;DHT22;61094;51.154;13.570;2022-11-15T09:48:49;16.50;64.90
72940;DHT22;61094;51.154;13.570;2022-11-15T09:51:24;16.60;62.00
72940;DHT22;61094;51.154;13.570;2022-11-15T09:53:57;16.60;62.90
72940;DHT22;61094;51.154;13.570;2022-11-15T09:56:27;16.60;67.30
72940;DHT22;61094;51.154;13.570;2022-11-15T09:59:05;16.70;60.00
72940;DHT22;61094;51.154;13.570;2022-11-15T10:01:43;16.80;61.10
72940;DHT22;61094;51.154;13.570;2022-11-15T10:04:12;16.90;65.90
72940;DHT22;61094;51.154;13.570;2022-11-15T10:06:43;17.00;64.80
72940;DHT22;61094;51.154;13.570;2022-11-15T10:09:15;17.20;56.10
72940;DHT22;61094;51.154;13.570;2022-11-15T10:11:43;17.40;65.80
72940;DHT22;61094;51.154;13.570;2022-11-15T10:14:14;17.60;59.00
72940;DHT22;61094;51.154;13.570;2022-11-15T10:20:19;18.30;61.20
72940;DHT22;61094;51.154;13.570;2022-11-15T10:22:50;18.60;54.50
72940;DHT22;61094;51.154;13.570;2022-11-15T10:25:21;18.80;57.20
72940;DHT22;61094;51.154;13.570;2022-11-15T10:27:54;19.00;62.80
72940;DHT22;61094;51.154;13.570;2022-11-15T10:30:46;19.20;56.60
72940;DHT22;61094;51.154;13.570;2022-11-15T10:33:32;19.50;59.10
72940;DHT22;61094;51.154;13.570;2022-11-15T10:36:20;19.70;56.70
72940;DHT22;61094;51.154;13.570;2022-11-15T10:38:59;19.80;60.20
72940;DHT22;61094;51.154;13.570;2022-11-15T10:41:31;19.80;52.90
72940;DHT22;61094;51.154;13.570;2022-11-15T10:44:17;19.80;60.00
72940;DHT22;61094;51.154;13.570;2022-11-15T10:46:47;19.80;56.20
72940;DHT22;61094;51.154;13.570;2022-11-15T10:49:17;19.70;54.40
72940;DHT22;61094;51.154;13.570;2022-11-15T10:51:45;19.70;53.20
72940;DHT22;61094;51.154;13.570;2022-11-15T10:54:19;19.70;48.20
72940;DHT22;61094;51.154;13.570;2022-11-15T10:56:49;19.70;49.20
72940;DHT22;61094;51.154;13.570;2022-11-15T10:59:23;19.60;54.20
72940;DHT22;61094;51.154;13.570;2022-11-15T11:01:52;19.60;49.20
72940;DHT22;61094;51.154;13.570;2022-11-15T11:04:18;19.40;58.80
72940;DHT22;61094;51.154;13.570;2022-11-15T11:06:50;19.40;59.20
72940;DHT22;61094;51.154;13.570;2022-11-15T11:09:25;19.40;57.30
72940;DHT22;61094;51.154;13.570;2022-11-15T11:11:54;19.30;58.40
72940;DHT22;61094;51.154;13.570;2022-11-15T11:14:23;19.30;61.40
72940;DHT22;61094;51.154;13.570;2022-11-15T11:16:56;19.30;60.60
72940;DHT22;61094;51.154;13.570;2022-11-15T11:19:37;19.20;58.00
72940;DHT22;61094;51.154;13.570;2022-11-15T11:22:12;19.10;55.70
72940;DHT22;61094;51.154;13.570;2022-11-15T11:24:47;19.20;55.40
72940;DHT22;61094;51.154;13.570;2022-11-15T11:27:29;19.10;55.50
72940;DHT22;61094;51.154;13.570;2022-11-15T11:30:05;19.20;54.40
72940;DHT22;61094;51.154;13.570;2022-11-15T11:35:47;19.30;48.70
72940;DHT22;61094;51.154;13.570;2022-11-15T11:47:37;19.10;57.00
72940;DHT22;61094;51.154;13.570;2022-11-15T11:50:12;19.10;51.50
72940;DHT22;61094;51.154;13.570;2022-11-15T11:52:54;19.10;55.90
72940;DHT22;61094;51.154;13.570;2022-11-15T11:55:26;19.00;55.40
72940;DHT22;61094;51.154;13.570;2022-11-15T11:58:02;18.80;51.10
72940;DHT22;61094;51.154;13.570;2022-11-15T12:00:32;18.50;54.70
72940;DHT22;61094;51.154;13.570;2022-11-15T12:03:07;18.40;49.80
72940;DHT22;61094;51.154;13.570;2022-11-15T12:05:39;18.20;55.80
72940;DHT22;61094;51.154;13.570;2022-11-15T12:08:21;18.10;56.30
72940;DHT22;61094;51.154;13.570;2022-11-15T12:10:54;18.00;55.20
72940;DHT22;61094;51.154;13.570;2022-11-15T12:13:26;18.00;52.40
72940;DHT22;61094;51.154;13.570;2022-11-15T12:16:05;17.90;54.10
72940;DHT22;61094;51.154;13.570;2022-11-15T12:18:33;17.90;54.80
72940;DHT22;61094;51.154;13.570;2022-11-15T12:21:04;18.00;58.30
72940;DHT22;61094;51.154;13.570;2022-11-15T12:23:39;18.00;57.60
72940;DHT22;61094;51.154;13.570;2022-11-15T12:26:11;18.20;55.60
72940;DHT22;61094;51.154;13.570;2022-11-15T12:28:46;18.20;55.70
72940;DHT22;61094;51.154;13.570;2022-11-15T12:31:18;18.20;55.40
72940;DHT22;61094;51.154;13.570;2022-11-15T12:33:48;18.30;56.50
72940;DHT22;61094;51.154;13.570;2022-11-15T12:36:33;18.20;54.90
72940;DHT22;61094;51.154;13.570;2022-11-15T12:39:03;18.10;52.70
72940;DHT22;61094;51.154;13.570;2022-11-15T12:41:32;17.90;50.80
72940;DHT22;61094;51.154;13.570;2022-11-15T12:43:59;17.80;54.40
72940;DHT22;61094;51.154;13.570;2022-11-15T12:47:04;17.60;55.40
72940;DHT22;61094;51.154;13.570;2022-11-15T12:49:47;17.50;56.10
72940;DHT22;61094;51.154;13.570;2022-11-15T12:52:15;17.40;57.50
72940;DHT22;61094;51.154;13.570;2022-11-15T12:55:01;17.40;56.20
72940;DHT22;61094;51.154;13.570;2022-11-15T12:57:39;17.40;55.80
72940;DHT22;61094;51.154;13.570;2022-11-15T13:03:24;17.50;56.50
72940;DHT22;61094;51.154;13.570;2022-11-15T13:06:01;17.50;53.20
72940;DHT22;61094;51.154;13.570;2022-11-15T13:08:49;17.50;54.30
72940;DHT22;61094;51.154;13.570;2022-11-15T13:11:45;17.50;54.40
72940;DHT22;61094;51.154;13.570;2022-11-15T13:14:47;17.40;54.90
72940;DHT22;61094;51.154;13.570;2022-11-15T13:17:35;17.40;56.80
72940;DHT22;61094;51.154;13.570;2022-11-15T13:20:18;17.20;51.70
72940;DHT22;61094;51.154;13.570;2022-11-15T13:22:47;17.10;54.00
72940;DHT22;61094;51.154;13.570;2022-11-15T13:25:22;17.10;53.00
72940;DHT22;61094;51.154;13.570;2022-11-15T13:27:54;17.10;52.60
72940;DHT22;61094;51.154;13.570;2022-11-15T13:30:24;17.00;56.40
72940;DHT22;61094;51.154;13.570;2022-11-15T13:32:51;17.00;53.90
72940;DHT22;61094;51.154;13.570;2022-11-15T13:35:23;17.00;55.10
72940;DHT22;61094;51.154;13.570;2022-11-15T13:37:51;16.90;56.50
72940;DHT22;61094;51.154;13.570;2022-11-15T13:40:23;17.00;59.00
72940;DHT22;61094;51.154;13.570;2022-11-15T13:42:50;17.00;56.30
72940;DHT22;61094;51.154;13.570;2022-11-15T13:45:18;17.00;58.70
72940;DHT22;61094;51.154;13.570;2022-11-15T13:47:51;17.00;54.00
72940;DHT22;61094;51.154;13.570;2022-11-15T13:50:20;16.90;54.80
72940;DHT22;61094;51.154;13.570;2022-11-15T13:52:48;16.80;57.10
72940;DHT22;61094;51.154;13.570;2022-11-15T13:55:17;16.60;54.80
72940;DHT22;61094;51.154;13.570;2022-11-15T13:57:46;16.50;57.20
72940;DHT22;61094;51.154;13.570;2022-11-15T14:00:32;16.50;57.50
72940;DHT22;61094;51.154;13.570;2022-11-15T14:03:07;16.30;55.10
72940;DHT22;61094;51.154;13.570;2022-11-15T14:05:34;16.20;56.40
72940;DHT22;61094;51.154;13.570;2022-11-15T14:08:03;16.10;58.90
72940;DHT22;61094;51.154;13.570;2022-11-15T14:10:33;15.90;57.20
72940;DHT22;61094;51.154;13.570;2022-11-15T14:13:00;15.70;60.00
72940;DHT22;61094;51.154;13.570;2022-11-15T14:15:31;15.50;60.30
72940;DHT22;61094;51.154;13.570;2022-11-15T14:17:59;15.30;61.30
72940;DHT22;61094;51.154;13.570;2022-11-15T14:20:31;15.10;62.60
72940;DHT22;61094;51.154;13.570;2022-11-15T14:22:59;15.00;61.60
72940;DHT22;61094;51.154;13.570;2022-11-15T14:25:27;14.80;63.60
72940;DHT22;61094;51.154;13.570;2022-11-15T14:28:31;14.60;63.90
72940;DHT22;61094;51.154;13.570;2022-11-15T14:31:10;14.50;63.50
72940;DHT22;61094;51.154;13.570;2022-11-15T14:33:38;14.20;63.90
72940;DHT22;61094;51.154;13.570;2022-11-15T14:36:11;14.10;65.20
72940;DHT22;61094;51.154;13.570;2022-11-15T14:38:38;13.90;65.80
72940;DHT22;61094;51.154;13.570;2022-11-15T14:41:05;13.90;66.20
72940;DHT22;61094;51.154;13.570;2022-11-15T14:43:32;13.70;66.10
72940;DHT22;61094;51.154;13.570;2022-11-15T14:45:59;13.60;66.20
72940;DHT22;61094;51.154;13.570;2022-11-15T14:48:27;13.40;66.50
72940;DHT22;61094;51.154;13.570;2022-11-15T14:50:54;13.20;66.70
72940;DHT22;61094;51.154;13.570;2022-11-15T14:53:20;12.90;67.50
72940;DHT22;61094;51.154;13.570;2022-11-15T14:55:47;12.70;68.10
72940;DHT22;61094;51.154;13.570;2022-11-15T14:58:14;12.60;68.80
72940;DHT22;61094;51.154;13.570;2022-11-15T15:00:41;12.50;69.30
72940;DHT22;61094;51.154;13.570;2022-11-15T15:03:08;12.30;69.50
72940;DHT22;61094;51.154;13.570;2022-11-15T15:05:38;12.20;69.70
72940;DHT22;61094;51.154;13.570;2022-11-15T15:08:06;12.00;70.60
72940;DHT22;61094;51.154;13.570;2022-11-15T15:10:34;11.90;70.40
72940;DHT22;61094;51.154;13.570;2022-11-15T15:13:02;11.80;71.10
72940;DHT22;61094;51.154;13.570;2022-11-15T15:15:34;11.60;70.90
72940;DHT22;61094;51.154;13.570;2022-11-15T15:18:01;11.50;71.60
72940;DHT22;61094;51.154;13.570;2022-11-15T15:20:28;11.40;71.50
72940;DHT22;61094;51.154;13.570;2022-11-15T15:22:56;11.30;71.70
72940;DHT22;61094;51.154;13.570;2022-11-15T15:25:26;11.20;72.50
72940;DHT22;61094;51.154;13.570;2022-11-15T15:27:54;11.10;73.80
72940;DHT22;61094;51.154;13.570;2022-11-15T15:30:21;10.90;73.50
72940;DHT22;61094;51.154;13.570;2022-11-15T15:32:48;10.80;72.40
72940;DHT22;61094;51.154;13.570;2022-11-15T15:35:16;10.70;73.00
72940;DHT22;61094;51.154;13.570;2022-11-15T15:37:44;10.60;74.80
72940;DHT22;61094;51.154;13.570;2022-11-15T15:40:15;10.50;73.80
72940;DHT22;61094;51.154;13.570;2022-11-15T15:42:42;10.40;73.90
72940;DHT22;61094;51.154;13.570;2022-11-15T15:45:10;10.30;74.40
72940;DHT22;61094;51.154;13.570;2022-11-15T15:47:37;10.20;75.00
72940;DHT22;61094;51.154;13.570;2022-11-15T15:50:04;10.10;74.50
72940;DHT22;61094;51.154;13.570;2022-11-15T15:52:38;10.10;75.30
72940;DHT22;61094;51.154;13.570;2022-11-15T15:55:05;10.00;73.90
72940;DHT22;61094;51.154;13.570;2022-11-15T15:57:33;9.90;74.90
72940;DHT22;61094;51.154;13.570;2022-11-15T16:00:00;9.80;76.70
72940;DHT22;61094;51.154;13.570;2022-11-15T16:02:27;9.70;75.50
72940;DHT22;61094;51.154;13.570;2022-11-15T16:04:53;9.60;76.00
72940;DHT22;61094;51.154;13.570;2022-11-15T16:07:21;9.60;77.50
72940;DHT22;61094;51.154;13.570;2022-11-15T16:09:49;9.50;78.40